Time;durP1;ratioP1;P1;durP2;ratioP2;P2;SDS_P1;SDS_P2;PMS_P1;PMS_P2;Temp;Humidity;BMP_temperature;BMP_pressure;BME280_temperature;BME280_humidity;BME280_pressure;Samples;Min_cycle;Max_cycle;Signal;HPM_P1;HPM_P2
2024/03/01 00:00:00;;;;;;;21.60;9.80;;;;;;;4.46;57.36;100271.55;79917;1293;3019553;-70
2024/03/01 00:02:27;;;;;;;21.50;10.40;;;;;;;4.47;57.30;100276.23;79847;1296;3011338;-73
2024/03/01 00:04:54;;;;;;;26.40;10.50;;;;;;;4.47;57.38;100279.33;78700;1295;3026011;-72
2024/03/01 00:07:21;;;;;;;21.90;9.70;;;;;;;4.48;57.26;100283.30;80179;1295;3019069;-73
2024/03/01 00:09:48;;;;;;;23.70;11.00;;;;;;;4.48;57.09;100278.78;79834;1295;3011868;-71
2024/03/01 00:12:15;;;;;;;28.40;10.90;;;;;;;4.50;57.01;100277.19;78581;1295;3025924;-71
2024/03/01 00:14:42;;;;;;;21.40;10.00;;;;;;;4.50;57.15;100276.48;79877;1292;3018441;-70
2024/03/01 00:17:09;;;;;;;24.40;10.40;;;;;;;4.57;56.74;100273.23;79873;1298;3011844;-72
2024/03/01 00:19:37;;;;;;;26.20;10.20;;;;;;;4.66;56.32;100265.38;78676;1291;3027316;-70
2024/03/01 00:22:04;;;;;;;21.90;10.80;;;;;;;4.73;56.06;100259.65;79930;1295;3012892;-72
2024/03/01 00:24:31;;;;;;;25.10;11.80;;;;;;;4.70;56.32;100257.45;80326;1292;3011613;-72
2024/03/01 00:26:58;;;;;;;26.10;12.10;;;;;;;4.52;56.77;100266.03;80269;1295;3050255;-71
2024/03/01 00:29:26;;;;;;;27.90;11.90;;;;;;;4.30;57.27;100271.04;82202;1292;3018321;-71
2024/03/01 00:31:53;;;;;;;28.10;11.00;;;;;;;4.13;57.20;100264.28;81875;1295;3011337;-70
2024/03/01 00:34:20;;;;;;;27.40;11.60;;;;;;;4.04;57.29;100257.38;80209;1292;3026363;-72
2024/03/01 00:36:47;;;;;;;26.50;12.40;;;;;;;3.88;57.80;100257.36;82229;1295;3013029;-71
2024/03/01 00:39:13;;;;;;;29.30;13.70;;;;;;;3.73;58.24;100258.71;82175;1295;3011143;-71
2024/03/01 00:41:41;;;;;;;26.50;12.90;;;;;;;3.64;58.52;100258.52;78814;1295;3026441;-72
2024/03/01 00:44:09;;;;;;;29.00;12.70;;;;;;;3.51;58.97;100251.84;79813;1295;3012798;-73
2024/03/01 00:46:36;;;;;;;31.90;13.30;;;;;;;3.46;59.17;100244.67;79770;1292;3011944;-72
2024/03/01 00:49:04;;;;;;;30.90;13.20;;;;;;;3.40;59.31;100244.78;78573;1295;3050510;-73
2024/03/01 00:51:31;;;;;;;33.10;16.00;;;;;;;3.30;59.86;100240.27;79969;1295;3013782;-71
2024/03/01 00:53:58;;;;;;;37.20;19.50;;;;;;;3.20;60.23;100233.20;79866;1293;3011775;-70
2024/03/01 00:56:26;;;;;;;34.00;18.80;;;;;;;3.11;60.42;100232.14;78673;1291;3048767;-72
2024/03/01 00:58:53;;;;;;;34.50;17.90;;;;;;;3.04;60.49;100225.00;79849;1292;3019799;-72
2024/03/01 01:01:20;;;;;;;34.20;18.20;;;;;;;2.98;60.44;100223.71;79781;1295;3012741;-72
2024/03/01 01:03:48;;;;;;;35.70;15.80;;;;;;;2.97;60.46;100227.19;78616;1298;3026064;-72
2024/03/01 01:06:14;;;;;;;30.50;15.60;;;;;;;2.89;60.39;100233.55;79820;1295;3014646;-71
2024/03/01 01:08:41;;;;;;;36.60;17.10;;;;;;;2.83;60.59;100227.27;79861;1293;3011573;-72
2024/03/01 01:11:09;;;;;;;36.70;19.90;;;;;;;2.78;60.74;100223.89;78408;1293;3026889;-73
2024/03/01 01:13:35;;;;;;;48.70;28.60;;;;;;;2.74;60.77;100229.13;79630;1293;3013271;-68
2024/03/01 01:16:02;;;;;;;62.00;40.10;;;;;;;2.71;61.01;100230.23;79572;1292;3013061;-70
2024/03/01 01:18:30;;;;;;;61.40;35.50;;;;;;;2.66;61.17;100236.86;78392;1295;3028797;-72
2024/03/01 01:20:56;;;;;;;50.90;30.40;;;;;;;2.62;61.29;100239.52;79691;1297;3014990;-69
2024/03/01 01:23:23;;;;;;;48.60;28.00;;;;;;;2.61;61.34;100241.11;79917;1292;3012034;-70
2024/03/01 01:25:51;;;;;;;49.30;28.90;;;;;;;2.60;61.51;100239.03;78605;1295;3025369;-70
2024/03/01 01:28:17;;;;;;;52.70;30.20;;;;;;;2.57;61.50;100234.77;79935;1295;3012863;-69
2024/03/01 01:30:45;;;;;;;57.00;32.30;;;;;;;2.57;61.42;100235.98;79752;1295;3011600;-68
2024/03/01 01:33:13;;;;;;;50.40;31.10;;;;;;;2.60;61.12;100233.33;78635;1295;3050298;-69
2024/03/01 01:35:40;;;;;;;49.60;27.10;;;;;;;2.58;60.97;100228.34;79847;1295;3018528;-69
2024/03/01 01:38:06;;;;;;;40.00;21.50;;;;;;;2.58;60.66;100228.19;79849;1295;3013630;-72
2024/03/01 01:40:34;;;;;;;40.30;18.50;;;;;;;2.59;60.39;100233.70;78518;1295;3026487;-72
2024/03/01 01:43:04;;;;;;;38.80;16.40;;;;;;;2.59;59.96;100233.34;79885;1295;3012796;-69
2024/03/01 01:45:33;;;;;;;27.40;15.30;;;;;;;2.60;60.09;100235.23;79374;1295;3011806;-71
2024/03/01 01:48:02;;;;;;;32.60;15.60;;;;;;;2.58;60.20;100238.91;79801;1292;3012931;-70
2024/03/01 01:50:29;;;;;;;33.00;16.60;;;;;;;2.57;60.34;100249.80;79806;1295;3011387;-66
2024/03/01 01:52:57;;;;;;;29.40;14.10;;;;;;;2.57;60.37;100246.02;78568;1292;3051098;-70
2024/03/01 01:55:23;;;;;;;29.60;13.40;;;;;;;2.55;60.25;100248.29;79730;1298;3012963;-71
2024/03/01 01:57:50;;;;;;;22.60;12.40;;;;;;;2.53;60.39;100242.95;79783;1296;3011923;-71
2024/03/01 02:00:18;;;;;;;29.50;12.50;;;;;;;2.51;59.91;100237.95;78613;1292;3026655;-70
2024/03/01 02:02:49;;;;;;;27.30;12.20;;;;;;;2.47;60.39;100237.32;79877;1292;3012859;-71
2024/03/01 02:05:18;;;;;;;29.00;12.70;;;;;;;2.44;60.64;100249.66;78426;1301;3052583;-72
2024/03/01 02:07:45;;;;;;;31.00;14.50;;;;;;;2.46;60.70;100258.61;79875;1295;3014654;-71
2024/03/01 02:10:19;;;;;;;29.10;17.90;;;;;;;2.45;60.78;100258.64;79897;1291;3011698;-71
2024/03/01 02:12:53;;;;;;;;;;;;;;;2.39;61.29;100263.04;78645;1291;3056438;-70
2024/03/01 02:15:26;;;;;;;33.30;16.50;;;;;;;2.30;61.67;100258.50;79340;1292;3012944;-71
2024/03/01 02:17:57;;;;;;;25.60;15.00;;;;;;;2.31;61.67;100256.07;79880;1292;3011866;-70
2024/03/01 02:20:26;;;;;;;29.10;14.90;;;;;;;2.32;61.82;100259.52;78787;1292;3052027;-71
2024/03/01 02:23:18;;;;;;;27.10;15.90;;;;;;;2.32;61.82;100266.06;79935;1293;3013205;-72
2024/03/01 02:25:46;;;;;;;26.70;16.00;;;;;;;2.31;62.06;100270.24;78604;1291;3053363;-73
2024/03/01 02:28:12;;;;;;;34.70;16.10;;;;;;;2.36;61.78;100275.02;79869;1295;3013063;-73
2024/03/01 02:30:39;;;;;;;25.50;14.60;;;;;;;2.34;61.87;100281.77;79803;1295;3011648;-73
2024/03/01 02:33:07;;;;;;;28.20;13.60;;;;;;;2.37;62.01;100281.21;78675;1292;3026514;-70
2024/03/01 02:35:34;;;;;;;23.90;11.60;;;;;;;2.38;61.82;100271.71;80003;1292;3012768;-72
2024/03/01 02:38:00;;;;;;;21.20;11.90;;;;;;;2.40;61.84;100276.33;79877;1295;3011710;-72
2024/03/01 02:40:28;;;;;;;23.90;12.80;;;;;;;2.39;61.90;100278.94;78650;1295;3026311;-71
2024/03/01 02:42:55;;;;;;;26.10;12.60;;;;;;;2.39;61.75;100285.34;79826;1295;3015930;-71
2024/03/01 02:45:23;;;;;;;33.70;18.40;;;;;;;2.37;62.08;100287.97;79865;1295;3013171;-71
2024/03/01 02:47:50;;;;;;;34.80;21.50;;;;;;;2.35;62.17;100283.31;78676;1295;3056010;-72
2024/03/01 02:50:17;;;;;;;28.00;17.40;;;;;;;2.32;62.30;100281.11;79850;1292;3013010;-73
2024/03/01 02:52:44;;;;;;;34.60;15.60;;;;;;;2.31;62.44;100282.16;79827;1293;3011679;-74
2024/03/01 02:55:19;;;;;;;24.30;13.20;;;;;;;2.34;62.46;100288.70;78655;1292;3026655;-71
2024/03/01 02:57:49;;;;;;;26.60;11.70;;;;;;;2.34;62.52;100287.14;78646;1295;3052607;-72
2024/03/01 03:00:16;;;;;;;23.20;12.20;;;;;;;2.35;62.51;100280.03;79769;1295;3013017;-69
2024/03/01 03:02:43;;;;;;;19.50;10.80;;;;;;;2.38;62.39;100280.70;79849;1295;3011859;-71
2024/03/01 03:05:10;;;;;;;19.90;10.50;;;;;;;2.39;62.38;100281.02;78564;1295;3050058;-72
2024/03/01 03:07:38;;;;;;;27.80;11.10;;;;;;;2.38;62.49;100282.59;79966;1295;3013430;-69
2024/03/01 03:10:05;;;;;;;23.50;11.00;;;;;;;2.40;62.24;100279.63;79800;1295;3011870;-71
2024/03/01 03:12:33;;;;;;;23.60;10.60;;;;;;;2.43;62.08;100275.44;78716;1295;3026715;-69
2024/03/01 03:15:07;;;;;;;25.30;10.40;;;;;;;2.40;61.96;100273.06;79843;1292;3013507;-70
2024/03/01 03:17:36;;;;;;;20.10;10.00;;;;;;;2.38;62.33;100271.52;78693;1295;3056128;-73
2024/03/01 03:20:09;;;;;;;27.70;10.20;;;;;;;2.33;62.87;100263.13;79884;1298;3014404;-71
2024/03/01 03:22:38;;;;;;;31.30;11.00;;;;;;;2.34;62.54;100258.78;78737;1295;3050107;-73
2024/03/01 03:25:05;;;;;;;20.00;9.90;;;;;;;2.29;62.76;100257.48;80779;1295;3013546;-71
2024/03/01 03:27:32;;;;;;;20.10;10.00;;;;;;;2.26;63.00;100256.66;79854;1295;3011709;-69
2024/03/01 03:30:00;;;;;;;20.50;10.00;;;;;;;2.25;63.03;100251.48;78731;1297;3051926;-71
2024/03/01 03:32:27;;;;;;;21.30;10.10;;;;;;;2.23;63.32;100241.65;79837;1295;3013164;-71
2024/03/01 03:34:54;;;;;;;19.00;10.70;;;;;;;2.18;63.58;100233.95;80039;1295;3013032;-69
2024/03/01 03:37:22;;;;;;;23.20;10.40;;;;;;;2.11;63.71;100240.77;78598;1292;3050259;-73
2024/03/01 03:39:48;;;;;;;19.40;10.40;;;;;;;2.08;64.11;100246.52;79878;1295;3018343;-72
2024/03/01 03:42:15;;;;;;;23.60;11.40;;;;;;;2.07;64.10;100248.96;79907;1295;3011759;-71
2024/03/01 03:44:43;;;;;;;23.80;11.40;;;;;;;2.08;64.07;100256.88;78652;1295;3028552;-71
2024/03/01 03:47:09;;;;;;;26.70;12.70;;;;;;;2.06;64.09;100267.48;79815;1292;3015787;-73
2024/03/01 03:49:36;;;;;;;30.10;13.70;;;;;;;2.00;64.58;100257.67;79885;1292;3011982;-71
2024/03/01 03:52:05;;;;;;;25.90;13.50;;;;;;;1.95;64.74;100247.04;78620;1295;3026720;-73
2024/03/01 03:54:32;;;;;;;24.60;12.70;;;;;;;1.93;64.65;100245.17;80070;1296;3013828;-74
2024/03/01 03:56:58;;;;;;;28.20;12.40;;;;;;;1.84;65.10;100244.74;79902;1292;3013458;-73
2024/03/01 03:59:26;;;;;;;25.80;13.40;;;;;;;1.79;65.07;100244.13;78521;1293;3050411;-72
2024/03/01 04:01:53;;;;;;;29.80;14.10;;;;;;;1.74;65.63;100243.15;79868;1292;3018723;-71
2024/03/01 04:04:19;;;;;;;33.50;15.20;;;;;;;1.72;65.55;100248.52;80007;1295;3011593;-71
2024/03/01 04:06:47;;;;;;;27.40;14.20;;;;;;;1.69;65.88;100256.16;78597;1297;3025265;-73
2024/03/01 04:09:15;;;;;;;29.00;13.60;;;;;;;1.65;66.08;100252.75;79966;1295;3012746;-71
2024/03/01 04:11:42;;;;;;;28.00;14.10;;;;;;;1.62;66.12;100246.23;79808;1295;3011587;-72
2024/03/01 04:14:10;;;;;;;30.40;13.90;;;;;;;1.53;66.50;100241.83;78784;1292;3052202;-69
2024/03/01 04:16:37;;;;;;;27.00;13.80;;;;;;;1.52;66.29;100249.10;79772;1298;3018357;-69
2024/03/01 04:19:08;;;;;;;27.40;13.80;;;;;;;1.47;66.71;100248.28;79824;1298;3011889;-72
2024/03/01 04:21:39;;;;;;;25.90;12.90;;;;;;;1.46;66.84;100236.91;78793;1292;3049728;-71
2024/03/01 04:24:08;;;;;;;22.60;12.10;;;;;;;1.44;66.97;100230.36;79913;1292;3011631;-70
2024/03/01 04:26:37;;;;;;;29.80;13.30;;;;;;;1.49;66.70;100234.11;78539;1302;3052797;-70
2024/03/01 04:29:05;;;;;;;28.00;12.40;;;;;;;1.47;67.04;100232.92;79769;1298;3012928;-71
2024/03/01 04:31:32;;;;;;;24.40;12.50;;;;;;;1.42;67.53;100225.88;80051;1292;3013314;-69
2024/03/01 04:34:00;;;;;;;32.70;11.80;;;;;;;1.40;67.46;100225.75;78549;1297;3049573;-71
2024/03/01 04:36:27;;;;;;;26.90;13.20;;;;;;;1.42;67.37;100229.35;79871;1292;3016201;-73
2024/03/01 04:38:54;;;;;;;30.40;14.10;;;;;;;1.45;67.10;100228.11;79836;1292;3011863;-71
2024/03/01 04:41:21;;;;;;;27.80;12.70;;;;;;;1.43;66.89;100224.16;78652;1298;3051793;-69
2024/03/01 04:43:48;;;;;;;28.80;13.00;;;;;;;1.42;67.24;100230.04;79855;1298;3020442;-70
2024/03/01 04:46:15;;;;;;;30.00;13.50;;;;;;;1.42;67.42;100230.21;79913;1297;3011598;-71
2024/03/01 04:48:43;;;;;;;35.20;12.30;;;;;;;1.45;66.97;100228.45;78595;1298;3026132;-69
2024/03/01 04:51:10;;;;;;;28.00;14.30;;;;;;;1.48;67.07;100233.59;79859;1297;3013440;-69
2024/03/01 04:53:37;;;;;;;25.10;12.60;;;;;;;1.49;67.25;100237.23;80053;1296;3011720;-72
2024/03/01 04:56:08;;;;;;;28.30;12.70;;;;;;;1.50;66.75;100239.97;78633;1298;3052085;-70
2024/03/01 04:58:38;;;;;;;34.50;12.80;;;;;;;1.47;67.03;100238.61;79893;1293;3011878;-73
2024/03/01 05:01:06;;;;;;;29.10;13.00;;;;;;;1.43;67.20;100234.00;78581;1292;3051055;-72
2024/03/01 05:03:32;;;;;;;31.90;13.00;;;;;;;1.40;67.16;100231.27;79928;1292;3011392;-72
2024/03/01 05:05:59;;;;;;;27.50;13.50;;;;;;;1.41;67.32;100240.40;79712;1292;3011952;-73
2024/03/01 05:08:27;;;;;;;27.00;13.20;;;;;;;1.40;67.42;100241.46;78676;1297;3026077;-71
2024/03/01 05:10:54;;;;;;;27.60;13.30;;;;;;;1.36;67.39;100240.48;79815;1295;3013417;-69
2024/03/01 05:13:21;;;;;;;40.90;14.70;;;;;;;1.34;67.69;100242.73;79867;1292;3012289;-69
2024/03/01 05:15:49;;;;;;;29.20;13.50;;;;;;;1.40;67.65;100252.84;78670;1293;3052096;-70
2024/03/01 05:18:18;;;;;;;30.30;13.40;;;;;;;1.42;67.07;100252.31;79856;1293;3013193;-71
2024/03/01 05:20:44;;;;;;;30.10;14.20;;;;;;;1.32;67.49;100246.72;79935;1295;3011958;-72
2024/03/01 05:23:12;;;;;;;36.90;15.90;;;;;;;1.37;67.10;100251.86;78705;1298;3051822;-71
2024/03/01 05:25:44;;;;;;;28.80;14.20;;;;;;;1.36;67.18;100261.02;79896;1293;3011589;-73
2024/03/01 05:28:12;;;;;;;26.70;14.80;;;;;;;1.36;67.52;100255.48;78753;1295;3052970;-72
2024/03/01 05:30:39;;;;;;;29.20;13.40;;;;;;;1.39;67.31;100253.74;79949;1292;3015514;-74
2024/03/01 05:33:07;;;;;;;34.10;14.60;;;;;;;1.43;67.12;100252.98;79809;1295;3011983;-73
2024/03/01 05:35:35;;;;;;;32.40;14.40;;;;;;;1.45;67.13;100249.70;78605;1296;3050169;-71
2024/03/01 05:38:02;;;;;;;32.10;14.60;;;;;;;1.46;67.15;100245.52;79920;1298;3018555;-72
2024/03/01 05:40:29;;;;;;;34.70;14.00;;;;;;;1.50;66.94;100240.66;79921;1295;3011779;-73
2024/03/01 05:42:57;;;;;;;38.40;15.20;;;;;;;1.54;66.80;100238.55;78866;1292;3026057;-71
2024/03/01 05:45:24;;;;;;;32.40;14.60;;;;;;;1.53;67.01;100230.95;79945;1295;3019092;-73
2024/03/01 05:47:51;;;;;;;30.10;14.20;;;;;;;1.57;66.76;100230.05;79999;1292;3011916;-73
2024/03/01 05:50:20;;;;;;;31.40;13.80;;;;;;;1.60;66.88;100238.80;78759;1292;3026181;-71
2024/03/01 05:52:48;;;;;;;32.00;14.30;;;;;;;1.64;67.21;100236.02;79869;1293;3013041;-75
2024/03/01 05:55:17;;;;;;;32.60;15.70;;;;;;;1.71;66.87;100228.86;79389;1295;3013577;-72
2024/03/01 05:57:46;;;;;;;42.40;15.30;;;;;;;1.70;66.57;100223.52;79967;1301;3019090;-72
2024/03/01 06:00:25;;;;;;;30.60;15.70;;;;;;;1.67;66.57;100231.31;79791;1295;3011755;-70
2024/03/01 06:02:53;;;;;;;49.00;16.00;;;;;;;1.72;66.73;100230.23;78600;1295;3051590;-71
2024/03/01 06:05:19;;;;;;;38.30;15.50;;;;;;;1.72;66.39;100227.11;79880;1293;3013079;-72
2024/03/01 06:07:46;;;;;;;34.60;15.60;;;;;;;1.75;66.60;100232.77;79886;1294;3011610;-70
2024/03/01 06:10:16;;;;;;;38.50;15.30;;;;;;;1.79;66.65;100236.35;78712;1292;3026549;-72
2024/03/01 06:12:43;;;;;;;36.60;17.20;;;;;;;1.80;66.22;100237.20;80080;1295;3013724;-71
2024/03/01 06:15:13;;;;;;;35.90;17.80;;;;;;;1.83;66.33;100229.21;79599;1292;3013172;-70
2024/03/01 06:17:40;;;;;;;57.90;18.40;;;;;;;1.89;66.35;100230.70;79989;1295;3018524;-71
2024/03/01 06:20:09;;;;;;;56.50;20.20;;;;;;;1.93;66.56;100233.94;79720;1298;3013318;-72
2024/03/01 06:22:37;;;;;;;59.90;21.70;;;;;;;2.01;66.17;100227.95;78619;1293;3048889;-72
2024/03/01 06:25:05;;;;;;;49.50;17.40;;;;;;;2.04;66.06;100222.90;79781;1299;3018717;-71
2024/03/01 06:27:35;;;;;;;49.00;16.90;;;;;;;2.15;65.79;100222.77;79451;1295;3011371;-70
2024/03/01 06:30:05;;;;;;;44.20;17.40;;;;;;;2.19;65.61;100227.02;80238;1297;3012957;-72
2024/03/01 06:32:34;;;;;;;44.90;17.70;;;;;;;2.29;65.52;100232.23;79575;1292;3011832;-74
2024/03/01 06:35:01;;;;;;;45.70;17.30;;;;;;;2.39;65.53;100242.30;79896;1291;3012844;-72
2024/03/01 06:37:28;;;;;;;43.80;17.00;;;;;;;2.47;65.29;100244.60;80099;1293;3011904;-72
2024/03/01 06:39:56;;;;;;;43.00;17.80;;;;;;;2.55;64.85;100245.34;78947;1292;3048534;-72
2024/03/01 06:42:22;;;;;;;54.00;17.30;;;;;;;2.61;64.73;100247.48;80178;1291;3013402;-72
2024/03/01 06:44:49;;;;;;;47.50;20.20;;;;;;;2.70;64.54;100255.14;80401;1292;3011766;-73
2024/03/01 06:47:17;;;;;;;52.40;19.90;;;;;;;2.75;64.22;100258.16;78997;1296;3026824;-71
2024/03/01 06:49:44;;;;;;;49.20;21.00;;;;;;;2.79;64.10;100258.63;80427;1292;3012818;-73
2024/03/01 06:52:11;;;;;;;49.30;20.30;;;;;;;2.83;63.92;100260.65;79960;1293;3011361;-73
2024/03/01 06:54:39;;;;;;;48.00;19.80;;;;;;;2.88;63.73;100265.23;78785;1292;3026048;-73
2024/03/01 06:57:06;;;;;;;50.30;19.30;;;;;;;3.00;63.72;100274.04;79980;1292;3012559;-71
2024/03/01 06:59:33;;;;;;;50.10;19.60;;;;;;;3.08;63.55;100273.21;79897;1296;3011904;-71
2024/03/01 07:02:01;;;;;;;50.90;20.30;;;;;;;3.20;63.38;100275.79;78815;1295;3050880;-73
2024/03/01 07:04:28;;;;;;;54.30;20.70;;;;;;;3.23;63.08;100271.42;80212;1292;3012904;-72
2024/03/01 07:06:55;;;;;;;52.40;20.60;;;;;;;3.24;62.96;100272.77;80304;1292;3011857;-71
2024/03/01 07:09:23;;;;;;;68.20;22.30;;;;;;;3.34;62.71;100272.75;78839;1292;3027749;-72
2024/03/01 07:11:50;;;;;;;75.30;23.00;;;;;;;3.39;62.63;100275.27;80115;1295;3012859;-71
2024/03/01 07:14:16;;;;;;;79.60;24.80;;;;;;;3.38;62.67;100274.95;79636;1292;3012974;-71
2024/03/01 07:16:44;;;;;;;70.90;23.50;;;;;;;3.37;62.86;100271.50;78532;1294;3026752;-69
2024/03/01 07:19:11;;;;;;;49.00;22.80;;;;;;;3.48;62.73;100269.91;79894;1295;3020840;-74
2024/03/01 07:21:37;;;;;;;64.30;23.30;;;;;;;3.48;62.71;100273.55;79912;1292;3013166;-73
2024/03/01 07:24:05;;;;;;;62.90;23.30;;;;;;;3.48;62.76;100268.35;78799;1292;3026747;-72
2024/03/01 07:26:32;;;;;;;52.20;22.90;;;;;;;3.51;62.62;100267.94;80007;1295;3012905;-72
2024/03/01 07:28:59;;;;;;;50.40;22.30;;;;;;;3.63;62.37;100269.80;79836;1296;3011713;-72
2024/03/01 07:31:27;;;;;;;49.20;21.60;;;;;;;3.71;62.12;100262.88;78728;1295;3027449;-74
2024/03/01 07:33:55;;;;;;;50.80;22.00;;;;;;;3.73;61.87;100257.48;80254;1292;3013334;-73
2024/03/01 07:36:22;;;;;;;52.90;22.00;;;;;;;3.78;61.99;100254.79;79803;1293;3013101;-72
2024/03/01 07:38:50;;;;;;;55.30;23.50;;;;;;;3.88;61.73;100251.46;78603;1295;3049987;-73
2024/03/01 07:41:21;;;;;;;55.50;21.30;;;;;;;4.01;61.42;100247.20;80008;1293;3013476;-73
2024/03/01 07:43:49;;;;;;;62.50;20.90;;;;;;;4.11;61.11;100236.77;78739;1298;3052284;-74
2024/03/01 07:46:16;;;;;;;54.00;18.50;;;;;;;4.16;60.75;100229.90;79950;1295;3018341;-72
2024/03/01 07:48:46;;;;;;;45.00;18.40;;;;;;;4.34;60.33;100226.72;79843;1292;3013184;-72
2024/03/01 07:51:14;;;;;;;42.00;17.00;;;;;;;4.38;59.96;100222.11;78758;1292;3057826;-71
2024/03/01 07:53:41;;;;;;;48.00;17.50;;;;;;;4.41;59.99;100219.42;79935;1293;3013221;-74
2024/03/01 07:56:07;;;;;;;41.50;15.60;;;;;;;4.45;59.58;100220.57;79957;1293;3013710;-75
2024/03/01 07:58:36;;;;;;;35.50;16.70;;;;;;;4.49;59.43;100219.77;78650;1292;3026039;-74
2024/03/01 08:01:03;;;;;;;38.30;16.00;;;;;;;4.47;59.56;100219.83;79868;1293;3014157;-73
2024/03/01 08:03:33;;;;;;;41.70;15.70;;;;;;;4.64;59.30;100221.33;79744;1292;3011476;-70
2024/03/01 08:06:02;;;;;;;33.30;16.00;;;;;;;4.76;59.01;100223.14;78625;1292;3055846;-74
2024/03/01 08:08:35;;;;;;;40.10;15.30;;;;;;;4.92;58.70;100216.66;79900;1295;3011844;-72
2024/03/01 08:11:08;;;;;;;37.10;15.80;;;;;;;5.04;58.48;100204.53;78559;1295;3053354;-73
2024/03/01 08:13:35;;;;;;;31.30;15.10;;;;;;;5.19;58.22;100205.18;80104;1293;3012895;-73
2024/03/01 08:16:08;;;;;;;34.40;13.40;;;;;;;5.46;57.73;100211.94;78492;1298;3052864;-73
2024/03/01 08:18:39;;;;;;;25.50;14.00;;;;;;;5.55;57.27;100218.81;79928;1295;3011771;-75
2024/03/01 08:21:37;;;;;;;28.40;12.70;;;;;;;5.67;57.26;100206.48;80021;1307;3013333;-74
2024/03/01 08:24:04;;;;;;;30.00;12.60;;;;;;;5.61;57.07;100205.79;79348;1303;3012713;-72
2024/03/01 08:26:31;;;;;;;29.70;12.70;;;;;;;5.66;57.16;100212.05;79117;1307;3011753;-74
2024/03/01 08:29:00;;;;;;;27.90;13.10;;;;;;;5.74;56.85;100214.30;77996;1302;3051271;-73
2024/03/01 08:31:35;;;;;;;25.20;12.20;;;;;;;5.78;56.92;100213.29;79250;1303;3011898;-75
2024/03/01 08:34:24;;;;;;;22.50;11.10;;;;;;;5.92;56.91;100209.24;77879;1304;3205397;-75
2024/03/01 08:36:53;;;;;;;23.40;10.10;;;;;;;6.10;56.24;100212.05;78110;1299;3055466;-72
2024/03/01 08:39:21;;;;;;;24.70;10.80;;;;;;;6.11;55.87;100211.33;79615;1301;3018327;-71
2024/03/01 08:41:49;;;;;;;23.60;10.90;;;;;;;6.12;55.76;100209.88;79360;1298;3013240;-72
2024/03/01 08:44:49;;;;;;;26.70;10.60;;;;;;;6.36;55.63;100216.11;78136;1302;3053909;-75
2024/03/01 08:47:30;;;;;;;25.10;10.60;;;;;;;6.54;54.97;100212.23;78262;1304;3051611;-75
2024/03/01 08:50:13;;;;;;;20.60;10.10;;;;;;;6.43;55.09;100212.45;78461;1301;3068490;-74
2024/03/01 08:52:41;;;;;;;24.00;11.00;;;;;;;6.53;55.04;100207.41;78520;1300;3051578;-75
2024/03/01 08:55:17;;;;;;;26.20;10.50;;;;;;;6.63;54.56;100205.52;79451;1298;3018616;-74
2024/03/01 08:57:45;;;;;;;19.70;9.90;;;;;;;6.78;54.25;100206.77;78163;1298;3054517;-72
2024/03/01 09:00:53;;;;;;;19.30;9.90;;;;;;;6.93;53.82;100206.96;79494;1298;3012955;-71
2024/03/01 09:03:25;;;;;;;27.90;10.10;;;;;;;7.00;53.21;100209.00;77816;1306;3052699;-73
2024/03/01 09:05:53;;;;;;;24.30;11.00;;;;;;;7.11;53.00;100216.83;79182;1306;3012125;-76
2024/03/01 09:08:23;;;;;;;25.70;10.80;;;;;;;7.27;52.64;100216.07;78107;1301;3051077;-72
2024/03/01 09:10:53;;;;;;;18.90;10.30;;;;;;;7.06;52.90;100220.84;81073;1297;3012557;-72
2024/03/01 09:13:21;;;;;;;19.00;9.50;;;;;;;7.27;52.95;100228.46;78403;1298;3049806;-73
2024/03/01 09:15:48;;;;;;;26.20;9.30;;;;;;;7.47;51.96;100233.14;79432;1303;3013639;-72
2024/03/01 09:18:49;;;;;;;25.40;9.80;;;;;;;7.53;51.30;100233.48;79502;1298;3011698;-74
2024/03/01 09:21:34;;;;;;;19.00;9.70;;;;;;;7.59;51.22;100226.48;78247;1297;3052504;-74
2024/03/01 09:24:03;;;;;;;19.50;9.90;;;;;;;7.85;50.64;100212.94;78435;1298;3069147;-75
2024/03/01 09:26:30;;;;;;;22.10;10.00;;;;;;;7.87;50.42;100208.69;79517;1301;3012807;-73
2024/03/01 09:29:03;;;;;;;22.80;10.00;;;;;;;7.94;50.30;100206.53;79544;1300;3011622;-74
2024/03/01 09:31:31;;;;;;;21.00;11.10;;;;;;;8.05;50.08;100202.95;78426;1301;3053838;-73
2024/03/01 09:34:12;;;;;;;24.20;10.00;;;;;;;8.01;49.68;100202.40;79644;1300;3013035;-74
2024/03/01 09:36:40;;;;;;;21.60;9.70;;;;;;;8.00;49.78;100204.70;78283;1298;3050922;-73
2024/03/01 09:39:08;;;;;;;20.40;10.40;;;;;;;8.13;49.72;100212.08;80159;1297;3018383;-72
2024/03/01 09:46:06;;;;;;;26.50;10.80;;;;;;;8.43;49.09;100209.02;80250;1302;3013589;-74
2024/03/01 09:49:09;;;;;;;24.10;11.00;;;;;;;8.60;48.47;100213.92;79337;1301;3013356;-72
2024/03/01 09:51:49;;;;;;;25.60;11.90;;;;;;;8.75;47.76;100216.81;77636;1307;3050673;-72
2024/03/01 09:54:44;;;;;;;19.60;10.60;;;;;;;8.63;47.72;100218.88;77967;1308;3053212;-73
2024/03/01 09:57:29;;;;;;;19.30;10.20;;;;;;;8.66;47.61;100215.94;78528;1307;3051958;-75
2024/03/01 10:03:11;;;;;;;18.80;9.40;;;;;;;8.71;47.78;100200.36;80107;1301;3013808;-73
2024/03/01 10:05:49;;;;;;;20.60;9.60;;;;;;;8.90;47.23;100189.31;78201;1302;3052725;-76
2024/03/01 10:08:29;;;;;;;18.00;9.60;;;;;;;8.92;47.11;100188.34;78215;1304;3050499;-74
2024/03/01 10:11:19;;;;;;;19.90;9.30;;;;;;;9.06;46.77;100184.40;78406;1304;3053083;-74
2024/03/01 10:13:53;;;;;;;14.80;8.70;;;;;;;9.16;46.30;100182.21;78302;1301;3053510;-74
2024/03/01 10:16:55;;;;;;;20.10;8.90;;;;;;;9.31;46.13;100177.73;79047;1302;3011918;-73
2024/03/01 10:19:31;;;;;;;19.10;8.90;;;;;;;9.34;45.72;100172.56;78248;1301;3050412;-74
2024/03/01 10:22:26;;;;;;;22.50;10.50;;;;;;;9.23;46.09;100166.05;78270;1297;3056059;-73
2024/03/01 10:25:31;;;;;;;25.50;12.70;;;;;;;9.10;46.22;100161.02;78262;1299;3048793;-73
2024/03/01 10:28:05;;;;;;;31.90;14.90;;;;;;;9.25;46.08;100160.55;78256;1301;3055097;-75
2024/03/01 10:30:31;;;;;;;;;;;;;;;9.43;45.75;100153.24;79543;1299;3011803;-75
2024/03/01 10:33:26;;;;;;;30.50;14.60;;;;;;;9.46;45.30;100150.35;78751;1298;3051385;-74
2024/03/01 10:36:23;;;;;;;31.30;13.40;;;;;;;9.59;45.03;100143.61;78285;1301;3052645;-72
2024/03/01 10:39:09;;;;;;;30.80;13.90;;;;;;;9.61;45.24;100153.86;78227;1299;3068323;-74
2024/03/01 10:41:43;;;;;;;26.30;11.90;;;;;;;9.80;44.54;100156.64;78382;1298;3051988;-73
2024/03/01 10:44:28;;;;;;;26.40;10.80;;;;;;;9.92;44.37;100153.47;79521;1301;3011909;-74
2024/03/01 10:47:07;;;;;;;19.30;9.50;;;;;;;10.02;44.13;100144.09;78157;1301;3049736;-74
2024/03/01 10:49:38;;;;;;;16.90;9.20;;;;;;;9.88;44.00;100130.55;78349;1301;3053978;-74
2024/03/01 10:52:09;;;;;;;18.30;9.10;;;;;;;9.93;44.04;100122.62;79464;1298;3011561;-75
2024/03/01 10:54:37;;;;;;;20.90;9.70;;;;;;;10.06;44.16;100123.77;78534;1302;3052035;-73
2024/03/01 10:57:05;;;;;;;21.00;10.30;;;;;;;10.35;43.73;100122.05;79977;1301;3012973;-73
2024/03/01 10:59:37;;;;;;;25.30;11.00;;;;;;;10.38;43.19;100128.54;79798;1297;3011884;-74
2024/03/01 11:02:18;;;;;;;18.50;9.80;;;;;;;10.31;43.13;100130.30;78573;1297;3056621;-75
2024/03/01 11:04:58;;;;;;;20.70;9.80;;;;;;;10.26;43.31;100127.52;78695;1301;3049311;-75
2024/03/01 11:07:35;;;;;;;19.50;9.60;;;;;;;10.24;43.19;100127.77;78523;1298;3052886;-73
2024/03/01 11:10:19;;;;;;;18.00;9.90;;;;;;;10.22;43.04;100124.59;78281;1301;3049534;-75
2024/03/01 11:12:58;;;;;;;19.10;9.00;;;;;;;10.11;43.46;100123.37;78498;1298;3052300;-74
2024/03/01 11:15:27;;;;;;;16.40;9.20;;;;;;;10.04;43.61;100129.60;78217;1301;3054078;-75
2024/03/01 11:17:59;;;;;;;21.80;10.00;;;;;;;9.98;43.71;100127.66;79912;1298;3013194;-75
2024/03/01 11:20:42;;;;;;;18.20;9.10;;;;;;;10.01;43.81;100124.34;78318;1301;3050192;-74
2024/03/01 11:23:15;;;;;;;22.90;10.70;;;;;;;10.04;43.65;100119.98;78403;1298;3056999;-74